createdAt,value
2018-06-04T00:00:17.234Z,16.94
2018-06-04T00:01:17.260Z,16.93
2018-06-04T00:02:17.540Z,16.93
2018-06-04T00:03:17.844Z,16.91
2018-06-04T00:04:17.117Z,16.91
2018-06-04T00:05:17.402Z,16.87
2018-06-04T00:06:17.671Z,16.87
2018-06-04T00:07:16.943Z,16.90
2018-06-04T00:08:17.250Z,16.90
2018-06-04T00:09:17.551Z,16.78
2018-06-04T00:10:17.840Z,16.76
2018-06-04T00:11:17.871Z,16.76
2018-06-04T00:12:17.159Z,16.66
2018-06-04T00:13:17.435Z,16.67
2018-06-04T00:14:17.734Z,16.67
2018-06-04T00:15:17.008Z,16.57
2018-06-04T00:16:17.288Z,16.57
2018-06-04T00:17:17.555Z,16.53
2018-06-04T00:18:17.856Z,16.53
2018-06-04T00:19:17.396Z,16.49
2018-06-04T00:20:17.681Z,16.46
2018-06-04T00:21:17.731Z,16.46
2018-06-04T00:22:16.990Z,16.43
2018-06-04T00:23:17.292Z,16.47
2018-06-04T00:24:17.599Z,16.52
2018-06-04T00:25:17.877Z,16.52
2018-06-04T00:26:17.171Z,16.52
2018-06-04T00:27:17.472Z,16.43
2018-06-04T00:28:17.756Z,16.45
2018-06-04T00:29:17.014Z,16.45
2018-06-04T00:30:17.685Z,16.45
2018-06-04T00:31:17.743Z,16.28
2018-06-04T00:32:17.062Z,16.32
2018-06-04T00:33:17.364Z,16.36
2018-06-04T00:34:17.650Z,16.39
2018-06-04T00:35:16.935Z,16.40
2018-06-04T00:36:17.231Z,16.39
2018-06-04T00:37:17.515Z,16.39
2018-06-04T00:38:17.785Z,16.39
2018-06-04T00:39:17.074Z,18.02
2018-06-04T00:40:17.377Z,16.32
2018-06-04T00:41:17.421Z,16.36
2018-06-04T00:42:17.693Z,16.36
2018-06-04T00:43:16.978Z,16.40
2018-06-04T00:44:17.275Z,16.42
2018-06-04T00:45:17.563Z,16.40
2018-06-04T00:46:17.874Z,16.40
2018-06-04T00:47:17.158Z,16.40
2018-06-04T00:48:17.433Z,16.35
2018-06-04T00:49:17.722Z,16.28
2018-06-04T00:50:17.001Z,16.32
2018-06-04T00:51:17.055Z,16.33
2018-06-04T00:52:17.329Z,16.32
2018-06-04T00:53:17.591Z,16.35
2018-06-04T00:54:17.872Z,16.38
2018-06-04T00:55:17.158Z,16.49
2018-06-04T00:56:17.496Z,16.49
2018-06-04T00:57:17.790Z,16.55
2018-06-04T00:58:17.065Z,16.47
2018-06-04T00:59:17.344Z,16.46
2018-06-04T01:00:17.638Z,16.45
2018-06-04T01:01:17.665Z,16.45
2018-06-04T01:02:16.963Z,16.45
2018-06-04T01:03:17.262Z,16.59
2018-06-04T01:04:17.556Z,16.52
2018-06-04T01:05:17.887Z,16.39
2018-06-04T01:06:17.192Z,16.39
2018-06-04T01:07:17.458Z,16.31
2018-06-04T01:08:17.742Z,16.31
2018-06-04T01:09:17.027Z,16.27
2018-06-04T01:10:17.300Z,16.17
2018-06-04T01:11:17.343Z,16.14
2018-06-04T01:12:17.627Z,16.11
2018-06-04T01:13:16.932Z,16.05
2018-06-04T01:14:17.200Z,16.11
2018-06-04T01:15:17.503Z,16.11
2018-06-04T01:16:18.036Z,16.07
2018-06-04T01:17:17.322Z,16.07
2018-06-04T01:18:17.610Z,16.07
2018-06-04T01:19:16.900Z,16.04
2018-06-04T01:20:17.192Z,16.04
2018-06-04T01:21:17.234Z,16.04
2018-06-04T01:22:17.514Z,16.01
2018-06-04T01:23:17.781Z,16.00
2018-06-04T01:24:17.069Z,16.00
2018-06-04T01:25:17.362Z,16.00
2018-06-04T01:26:17.645Z,17.74
2018-06-04T01:27:16.914Z,15.85
2018-06-04T01:28:17.206Z,15.78
2018-06-04T01:29:17.480Z,15.77
2018-06-04T01:30:17.781Z,15.71
2018-06-04T01:31:17.822Z,15.71
2018-06-04T01:32:17.100Z,15.60
2018-06-04T01:33:17.375Z,15.60
2018-06-04T01:34:17.662Z,15.57
2018-06-04T01:35:16.952Z,15.57
2018-06-04T01:36:17.247Z,15.50
2018-06-04T01:37:17.545Z,15.50
2018-06-04T01:38:17.850Z,15.50
2018-06-04T01:39:17.121Z,15.43
2018-06-04T01:40:17.405Z,15.43
2018-06-04T01:41:17.439Z,15.41
2018-06-04T01:42:17.716Z,15.41
2018-06-04T01:43:17.000Z,15.41
2018-06-04T01:44:17.287Z,15.38
2018-06-04T01:45:17.566Z,15.39
2018-06-04T01:46:18.332Z,15.39
2018-06-04T01:47:17.899Z,15.41
2018-06-04T01:48:17.198Z,15.41
2018-06-04T01:49:17.511Z,15.41
2018-06-04T01:50:17.810Z,15.41
2018-06-04T01:51:17.856Z,15.35
2018-06-04T01:52:17.162Z,15.35
2018-06-04T01:53:17.464Z,15.35
2018-06-04T01:54:17.745Z,15.29
2018-06-04T01:55:17.041Z,15.29
2018-06-04T01:56:17.345Z,15.29
2018-06-04T01:57:17.614Z,15.21
2018-06-04T01:58:17.888Z,15.21
2018-06-04T01:59:17.170Z,15.22
2018-06-04T02:00:17.475Z,15.22
2018-06-04T02:01:17.507Z,15.15
2018-06-04T02:02:17.806Z,15.15
2018-06-04T02:03:17.078Z,15.12
2018-06-04T02:04:17.361Z,15.12
2018-06-04T02:05:17.676Z,15.06
2018-06-04T02:06:16.969Z,15.02
2018-06-04T02:07:17.239Z,15.02
2018-06-04T02:08:17.526Z,15.02
2018-06-04T02:09:17.811Z,16.72
2018-06-04T02:10:17.102Z,16.72
2018-06-04T02:11:17.141Z,15.01
2018-06-04T02:12:17.427Z,15.01
2018-06-04T02:13:17.700Z,15.01
2018-06-04T02:14:16.991Z,14.94
2018-06-04T02:15:17.274Z,14.94
2018-06-04T02:16:17.566Z,14.95
2018-06-04T02:17:17.846Z,14.97
2018-06-04T02:18:17.108Z,14.95
2018-06-04T02:19:17.387Z,14.95
2018-06-04T02:20:17.684Z,14.91
2018-06-04T02:21:17.755Z,14.91
2018-06-04T02:22:17.013Z,14.91
2018-06-04T02:23:17.294Z,16.40
2018-06-04T02:24:16.903Z,16.46
2018-06-04T02:25:17.187Z,16.44
2018-06-04T02:26:17.485Z,16.36
2018-06-04T02:27:17.769Z,14.83
2018-06-04T02:28:17.049Z,14.81
2018-06-04T02:29:17.329Z,14.81
2018-06-04T02:30:17.622Z,14.91
2018-06-04T02:31:17.657Z,14.88
2018-06-04T02:32:16.931Z,14.85
2018-06-04T02:33:17.213Z,14.85
2018-06-04T02:34:17.498Z,14.85
2018-06-04T02:35:17.831Z,16.25
2018-06-04T02:36:17.120Z,16.22
2018-06-04T02:37:17.392Z,16.21
2018-06-04T02:38:17.678Z,16.30
2018-06-04T02:39:16.956Z,16.36
2018-06-04T02:40:17.248Z,16.36
2018-06-04T02:41:17.290Z,16.36
2018-06-04T02:42:17.560Z,16.32
2018-06-04T02:43:17.858Z,14.52
2018-06-04T02:44:17.438Z,14.50
2018-06-04T02:45:17.720Z,14.47
2018-06-04T02:46:17.024Z,14.47
2018-06-04T02:47:17.309Z,14.43
2018-06-04T02:48:17.594Z,14.41
2018-06-04T02:49:18.165Z,14.41
2018-06-04T02:50:17.460Z,14.41
2018-06-04T02:51:17.515Z,14.40
2018-06-04T02:52:17.809Z,14.40
2018-06-04T02:53:17.084Z,14.40
2018-06-04T02:54:17.363Z,14.32
2018-06-04T02:55:17.650Z,14.32
2018-06-04T02:56:16.941Z,14.32
2018-06-04T02:57:17.244Z,14.26
2018-06-04T02:58:17.513Z,14.26
2018-06-04T02:59:17.828Z,14.26
2018-06-04T03:00:17.129Z,14.26
2018-06-04T03:01:17.161Z,14.26
2018-06-04T03:02:17.453Z,14.26
2018-06-04T03:03:17.749Z,16.03
2018-06-04T03:04:17.025Z,16.07
2018-06-04T03:05:17.323Z,16.06
2018-06-04T03:06:17.619Z,16.03
2018-06-04T03:07:17.893Z,16.00
2018-06-04T03:08:17.192Z,16.00
2018-06-04T03:09:17.500Z,16.00
2018-06-04T03:10:17.829Z,14.18
2018-06-04T03:11:17.835Z,14.22
2018-06-04T03:12:17.131Z,14.19
2018-06-04T03:13:17.416Z,14.19
2018-06-04T03:14:17.725Z,14.19
2018-06-04T03:15:16.981Z,15.92
2018-06-04T03:16:17.256Z,14.13
2018-06-04T03:17:17.555Z,14.13
2018-06-04T03:18:17.818Z,14.08
2018-06-04T03:19:17.098Z,14.07
2018-06-04T03:20:17.405Z,14.02
2018-06-04T03:21:17.424Z,14.02
2018-06-04T03:22:17.705Z,14.02
2018-06-04T03:23:16.987Z,16.07
2018-06-04T03:24:17.288Z,14.09
2018-06-04T03:25:17.595Z,14.09
2018-06-04T03:26:17.889Z,14.15
2018-06-04T03:27:17.159Z,14.11
2018-06-04T03:28:17.420Z,14.12
2018-06-04T03:29:17.702Z,14.09
2018-06-04T03:30:16.994Z,14.09
2018-06-04T03:31:17.079Z,14.11
2018-06-04T03:32:17.359Z,14.12
2018-06-04T03:33:17.635Z,14.12
2018-06-04T03:34:16.924Z,14.13
2018-06-04T03:35:17.200Z,14.16
2018-06-04T03:36:17.500Z,14.30
2018-06-04T03:37:17.770Z,14.28
2018-06-04T03:38:17.055Z,14.30
2018-06-04T03:39:17.353Z,14.32
2018-06-04T03:40:17.631Z,14.35
2018-06-04T03:41:17.680Z,14.35
2018-06-04T03:42:16.970Z,14.46
2018-06-04T03:43:17.231Z,14.46
2018-06-04T03:44:17.506Z,14.46
2018-06-04T03:45:17.783Z,14.56
2018-06-04T03:46:17.065Z,14.56
2018-06-04T03:47:17.359Z,14.57
2018-06-04T03:48:17.646Z,14.57
2018-06-04T03:49:16.931Z,14.57
2018-06-04T03:50:17.217Z,16.35
2018-06-04T03:51:17.246Z,14.59
2018-06-04T03:52:17.528Z,14.59
2018-06-04T03:53:17.810Z,14.59
2018-06-04T03:54:17.101Z,14.62
2018-06-04T03:55:17.363Z,14.62
2018-06-04T03:56:17.650Z,14.62
2018-06-04T03:57:16.958Z,14.62
2018-06-04T03:58:17.240Z,16.90
2018-06-04T03:59:17.520Z,16.89
2018-06-04T04:00:17.789Z,14.63
2018-06-04T04:01:17.833Z,14.63
2018-06-04T04:02:17.127Z,14.63
2018-06-04T04:03:17.406Z,14.63
2018-06-04T04:04:17.704Z,14.70
2018-06-04T04:05:16.976Z,14.70
2018-06-04T04:06:17.271Z,14.70
2018-06-04T04:07:17.549Z,17.15
2018-06-04T04:08:17.832Z,17.27
2018-06-04T04:09:17.177Z,17.24
2018-06-04T04:10:17.475Z,17.13
2018-06-04T04:11:17.512Z,17.19
2018-06-04T04:12:17.790Z,14.77
2018-06-04T04:13:17.065Z,14.77
2018-06-04T04:14:17.332Z,14.77
2018-06-04T04:15:17.617Z,14.84
2018-06-04T04:16:16.906Z,14.84
2018-06-04T04:17:17.211Z,14.84
2018-06-04T04:18:17.463Z,14.98
2018-06-04T04:19:17.772Z,14.98
2018-06-04T04:20:17.150Z,14.98
2018-06-04T04:21:17.199Z,17.57
2018-06-04T04:22:17.485Z,17.48
2018-06-04T04:23:17.737Z,15.22
2018-06-04T04:24:17.009Z,15.28
2018-06-04T04:25:17.298Z,15.28
2018-06-04T04:26:17.608Z,15.28
2018-06-04T04:27:17.874Z,15.50
2018-06-04T04:28:17.160Z,15.50
2018-06-04T04:29:17.456Z,15.50
2018-06-04T04:30:17.749Z,15.70
2018-06-04T04:31:17.791Z,15.70
2018-06-04T04:32:17.094Z,15.70
2018-06-04T04:33:17.376Z,18.33
2018-06-04T04:34:17.651Z,15.85
2018-06-04T04:35:16.915Z,15.85
2018-06-04T04:36:17.202Z,15.85
2018-06-04T04:37:17.485Z,15.98
2018-06-04T04:38:17.752Z,15.98
2018-06-04T04:39:17.018Z,15.98
2018-06-04T04:40:17.315Z,18.64
2018-06-04T04:41:17.358Z,18.55
2018-06-04T04:42:17.631Z,18.58
2018-06-04T04:43:17.895Z,18.62
2018-06-04T04:44:17.170Z,16.08
2018-06-04T04:45:17.464Z,16.08
2018-06-04T04:46:17.734Z,16.08
2018-06-04T04:47:17.298Z,18.95
2018-06-04T04:48:17.583Z,18.77
2018-06-04T04:49:17.871Z,18.75
2018-06-04T04:50:17.166Z,18.95
2018-06-04T04:51:17.201Z,19.02
2018-06-04T04:52:17.472Z,16.38
2018-06-04T04:53:17.755Z,16.38
2018-06-04T04:54:17.049Z,16.38
2018-06-04T04:55:17.317Z,19.37
2018-06-04T04:56:17.648Z,16.40
2018-06-04T04:57:16.938Z,16.43
2018-06-04T04:58:17.212Z,16.43
2018-06-04T04:59:17.492Z,16.50
2018-06-04T05:00:17.779Z,16.50
2018-06-04T05:01:18.143Z,16.50
2018-06-04T05:02:17.449Z,19.52
2018-06-04T05:03:17.713Z,16.68
2018-06-04T05:04:17.003Z,16.87
2018-06-04T05:05:17.272Z,16.87
2018-06-04T05:06:17.573Z,17.00
2018-06-04T05:07:17.861Z,17.04
2018-06-04T05:08:17.127Z,17.05
2018-06-04T05:09:17.426Z,17.05
2018-06-04T05:10:17.716Z,17.05
2018-06-04T05:11:17.849Z,20.62
2018-06-04T05:12:17.129Z,17.18
2018-06-04T05:13:17.412Z,17.22
2018-06-04T05:14:17.681Z,17.25
2018-06-04T05:15:16.958Z,17.25
2018-06-04T05:16:17.221Z,17.25
2018-06-04T05:17:17.500Z,21.06
2018-06-04T05:18:17.762Z,17.46
2018-06-04T05:19:17.051Z,17.52
2018-06-04T05:20:17.364Z,17.53
2018-06-04T05:21:17.401Z,17.54
2018-06-04T05:22:17.677Z,17.54
2018-06-04T05:23:16.978Z,17.54
2018-06-04T05:24:17.266Z,17.60
2018-06-04T05:25:17.549Z,17.69
2018-06-04T05:26:17.831Z,17.69
2018-06-04T05:27:17.141Z,17.69
2018-06-04T05:28:17.424Z,17.76
2018-06-04T05:29:17.696Z,17.76
2018-06-04T05:30:16.998Z,17.84
2018-06-04T05:31:17.037Z,17.89
2018-06-04T05:32:17.310Z,17.96
2018-06-04T05:33:17.598Z,17.96
2018-06-04T05:34:17.881Z,17.96
2018-06-04T05:35:17.160Z,17.96
2018-06-04T05:36:17.442Z,17.96
2018-06-04T05:37:17.725Z,22.24
2018-06-04T05:38:17.031Z,22.45
2018-06-04T05:39:17.318Z,22.36
2018-06-04T05:40:17.585Z,18.67
2018-06-04T05:41:17.645Z,18.65
2018-06-04T05:42:16.946Z,18.60
2018-06-04T05:43:17.300Z,18.60
2018-06-04T05:44:17.582Z,18.60
2018-06-04T05:45:17.903Z,22.67
2018-06-04T05:46:17.186Z,22.95
2018-06-04T05:47:17.494Z,23.00
2018-06-04T05:48:17.775Z,22.71
2018-06-04T05:49:17.059Z,22.86
2018-06-04T05:50:17.370Z,23.00
2018-06-04T05:51:17.381Z,22.80
2018-06-04T05:52:17.660Z,22.47
2018-06-04T05:53:16.932Z,22.38
2018-06-04T05:54:17.198Z,22.70
2018-06-04T05:55:17.493Z,18.90
2018-06-04T05:56:17.866Z,18.90
2018-06-04T05:57:17.283Z,19.17
2018-06-04T05:58:17.562Z,19.11
2018-06-04T05:59:17.861Z,19.11
2018-06-04T06:00:17.172Z,19.11
2018-06-04T06:01:17.192Z,19.11
2018-06-04T06:02:17.455Z,22.18
2018-06-04T06:03:17.741Z,19.15
2018-06-04T06:04:17.040Z,19.18
2018-06-04T06:05:17.353Z,19.18
2018-06-04T06:06:17.643Z,19.18
2018-06-04T06:07:16.920Z,23.32
2018-06-04T06:08:17.195Z,23.48
2018-06-04T06:09:17.561Z,23.40
2018-06-04T06:10:17.062Z,23.50
2018-06-04T06:11:17.097Z,19.49
2018-06-04T06:12:17.376Z,19.48
2018-06-04T06:13:17.661Z,19.48
2018-06-04T06:14:17.076Z,19.48
2018-06-04T06:15:17.526Z,23.59
2018-06-04T06:16:17.825Z,19.73
2018-06-04T06:17:17.126Z,19.70
2018-06-04T06:18:17.388Z,19.70
2018-06-04T06:19:17.664Z,19.70
2018-06-04T06:20:16.961Z,23.20
2018-06-04T06:21:16.987Z,19.83
2018-06-04T06:22:17.274Z,19.83
2018-06-04T06:23:17.535Z,19.83
2018-06-04T06:24:17.800Z,20.01
2018-06-04T06:25:17.111Z,20.07
2018-06-04T06:26:17.448Z,20.11
2018-06-04T06:27:17.743Z,20.20
2018-06-04T06:28:17.024Z,20.20
2018-06-04T06:29:17.298Z,20.20
2018-06-04T06:30:17.587Z,23.84
2018-06-04T06:31:17.629Z,24.10
2018-06-04T06:32:16.914Z,20.58
2018-06-04T06:33:17.204Z,20.62
2018-06-04T06:34:17.479Z,20.62
2018-06-04T06:35:17.757Z,20.62
2018-06-04T06:36:17.042Z,25.28
2018-06-04T06:37:17.342Z,25.42
2018-06-04T06:38:17.635Z,20.76
2018-06-04T06:39:16.929Z,20.76
2018-06-04T06:40:17.256Z,20.76
2018-06-04T06:41:17.252Z,20.90
2018-06-04T06:42:17.531Z,20.90
2018-06-04T06:43:17.802Z,20.90
2018-06-04T06:44:17.095Z,21.14
2018-06-04T06:45:17.384Z,21.14
2018-06-04T06:46:17.664Z,21.14
2018-06-04T06:47:16.951Z,21.15
2018-06-04T06:48:17.230Z,21.15
2018-06-04T06:49:17.522Z,21.15
2018-06-04T06:50:17.801Z,21.18
2018-06-04T06:51:17.834Z,21.10
2018-06-04T06:52:17.152Z,21.07
2018-06-04T06:53:17.420Z,21.07
2018-06-04T06:54:17.688Z,20.97
2018-06-04T06:55:16.972Z,20.97
2018-06-04T06:56:17.264Z,21.23
2018-06-04T06:57:17.561Z,21.23
2018-06-04T06:58:17.827Z,21.23
2018-06-04T06:59:17.117Z,28.21
2018-06-04T07:00:17.391Z,21.51
2018-06-04T07:01:17.464Z,21.51
2018-06-04T07:02:17.755Z,21.73
2018-06-04T07:03:17.045Z,21.82
2018-06-04T07:04:17.319Z,21.82
2018-06-04T07:05:17.590Z,21.78
2018-06-04T07:06:17.873Z,21.78
2018-06-04T07:07:17.146Z,21.78
2018-06-04T07:08:17.432Z,28.51
2018-06-04T07:09:17.713Z,28.88
2018-06-04T07:10:16.999Z,22.07
2018-06-04T07:11:17.036Z,22.12
2018-06-04T07:12:17.307Z,22.28
2018-06-04T07:13:17.594Z,22.28
2018-06-04T07:14:17.902Z,22.31
2018-06-04T07:15:17.348Z,22.31
2018-06-04T07:16:17.631Z,22.24
2018-06-04T07:17:16.912Z,22.23
2018-06-04T07:18:17.200Z,22.24
2018-06-04T07:19:17.502Z,22.24
2018-06-04T07:20:17.774Z,22.55
2018-06-04T07:21:17.809Z,22.70
2018-06-04T07:22:17.094Z,22.70
2018-06-04T07:23:17.370Z,22.61
2018-06-04T07:24:17.678Z,22.71
2018-06-04T07:25:16.960Z,22.71
2018-06-04T07:26:17.240Z,22.71
2018-06-04T07:27:17.542Z,29.45
2018-06-04T07:28:17.829Z,23.02
2018-06-04T07:29:17.234Z,23.13
2018-06-04T07:30:17.535Z,23.00
2018-06-04T07:31:17.580Z,23.02
2018-06-04T07:32:17.849Z,22.96
2018-06-04T07:33:17.127Z,22.96
2018-06-04T07:34:17.427Z,22.96
2018-06-04T07:35:17.747Z,23.40
2018-06-04T07:36:17.043Z,23.40
2018-06-04T07:37:17.309Z,23.40
2018-06-04T07:38:17.592Z,30.64
2018-06-04T07:39:17.886Z,31.72
2018-06-04T07:40:17.180Z,23.62
2018-06-04T07:41:17.243Z,23.61
2018-06-04T07:42:17.660Z,23.77
2018-06-04T07:43:16.938Z,23.77
2018-06-04T07:44:17.222Z,23.77
2018-06-04T07:45:17.502Z,24.16
2018-06-04T07:46:17.781Z,24.16
2018-06-04T07:47:17.084Z,24.16
2018-06-04T07:48:17.349Z,32.65
2018-06-04T07:49:17.613Z,32.58
2018-06-04T07:50:17.884Z,32.79
2018-06-04T07:51:16.931Z,23.98
2018-06-04T07:52:17.224Z,23.98
2018-06-04T07:53:17.500Z,23.98
2018-06-04T07:54:17.801Z,23.98
2018-06-04T07:55:17.085Z,24.05
2018-06-04T07:56:17.361Z,24.05
2018-06-04T07:57:17.711Z,23.96
2018-06-04T07:58:17.062Z,23.91
2018-06-04T07:59:17.350Z,23.83
2018-06-04T08:00:17.629Z,23.83
2018-06-04T08:01:17.673Z,23.83
2018-06-04T08:02:16.958Z,23.83
2018-06-04T08:03:17.238Z,33.69
2018-06-04T08:04:17.516Z,23.95
2018-06-04T08:05:17.897Z,23.95
2018-06-04T08:06:17.217Z,23.95
2018-06-04T08:07:17.532Z,24.33
2018-06-04T08:08:17.796Z,24.33
2018-06-04T08:09:17.055Z,24.33
2018-06-04T08:10:17.357Z,32.91
2018-06-04T08:11:17.375Z,33.57
2018-06-04T08:12:17.642Z,25.33
2018-06-04T08:13:16.921Z,25.39
2018-06-04T08:14:17.204Z,25.39
2018-06-04T08:15:17.495Z,25.56
2018-06-04T08:16:17.793Z,25.55
2018-06-04T08:17:17.074Z,25.76
2018-06-04T08:18:17.346Z,25.88
2018-06-04T08:19:17.639Z,26.35
2018-06-04T08:20:16.946Z,26.60
2018-06-04T08:21:16.975Z,26.91
2018-06-04T08:22:17.266Z,26.91
2018-06-04T08:23:17.567Z,27.20
2018-06-04T08:24:17.834Z,27.20
2018-06-04T08:25:17.143Z,27.20
2018-06-04T08:26:17.409Z,27.55
2018-06-04T08:27:17.703Z,27.55
2018-06-04T08:28:16.979Z,27.55
2018-06-04T08:29:17.324Z,27.61
2018-06-04T08:30:17.704Z,27.55
2018-06-04T08:31:17.740Z,27.55
2018-06-04T08:32:17.024Z,27.10
2018-06-04T08:33:17.298Z,27.10
2018-06-04T08:34:17.573Z,27.10
2018-06-04T08:35:17.882Z,34.48
2018-06-04T08:36:17.144Z,31.52
2018-06-04T08:37:17.442Z,31.50
2018-06-04T08:38:17.719Z,27.04
2018-06-04T08:39:16.996Z,26.28
2018-06-04T08:40:17.346Z,26.28
2018-06-04T08:41:17.324Z,26.28
2018-06-04T08:42:17.615Z,26.74
2018-06-04T08:43:17.890Z,27.01
2018-06-04T08:44:17.170Z,27.17
2018-06-04T08:45:17.460Z,27.17
2018-06-04T08:46:17.726Z,27.15
2018-06-04T08:47:17.027Z,27.15
2018-06-04T08:48:17.293Z,26.52
2018-06-04T08:49:17.593Z,26.52
2018-06-04T08:50:17.884Z,26.52
2018-06-04T08:51:16.926Z,25.57
2018-06-04T08:52:17.242Z,25.57
2018-06-04T08:53:17.536Z,25.57
2018-06-04T08:54:17.818Z,29.83
2018-06-04T08:55:17.089Z,29.84
2018-06-04T08:56:17.457Z,29.68
2018-06-04T08:57:17.779Z,29.69
2018-06-04T08:58:17.043Z,24.71
2018-06-04T08:59:17.318Z,24.71
2018-06-04T09:00:17.626Z,25.46
2018-06-04T09:01:17.742Z,24.91
2018-06-04T09:02:17.035Z,24.91
2018-06-04T09:03:17.324Z,24.91
2018-06-04T09:04:17.605Z,28.29
2018-06-04T09:05:17.900Z,24.81
2018-06-04T09:06:17.175Z,24.81
2018-06-04T09:07:17.459Z,24.81
2018-06-04T09:08:17.740Z,24.74
2018-06-04T09:09:17.041Z,24.74
2018-06-04T09:10:17.345Z,25.14
2018-06-04T09:11:17.384Z,25.14
2018-06-04T09:12:17.660Z,25.50
2018-06-04T09:13:16.929Z,25.50
2018-06-04T09:14:17.213Z,25.50
2018-06-04T09:15:17.507Z,29.76
2018-06-04T09:16:17.803Z,25.64
2018-06-04T09:17:17.094Z,25.35
2018-06-04T09:18:17.379Z,25.01
2018-06-04T09:19:17.640Z,25.07
2018-06-04T09:20:17.951Z,25.19
2018-06-04T09:21:16.953Z,25.19
2018-06-04T09:22:17.246Z,25.16
2018-06-04T09:23:17.528Z,25.45
2018-06-04T09:24:17.811Z,25.45
2018-06-04T09:25:17.105Z,25.45
2018-06-04T09:26:17.385Z,25.97
2018-06-04T09:27:17.651Z,26.21
2018-06-04T09:28:16.944Z,26.21
2018-06-04T09:29:17.232Z,26.76
2018-06-04T09:30:17.538Z,26.76
2018-06-04T09:31:17.585Z,27.59
2018-06-04T09:32:17.867Z,27.77
2018-06-04T09:33:17.209Z,26.34
2018-06-04T09:34:17.495Z,26.08
2018-06-04T09:35:18.049Z,25.80
2018-06-04T09:36:17.343Z,25.80
2018-06-04T09:37:17.641Z,25.80
2018-06-04T09:38:16.943Z,31.57
2018-06-04T09:39:17.214Z,31.74
2018-06-04T09:40:17.522Z,32.14
2018-06-04T09:41:17.568Z,31.56
2018-06-04T09:42:17.832Z,32.32
2018-06-04T09:43:17.112Z,27.20
2018-06-04T09:44:17.404Z,27.18
2018-06-04T09:45:17.696Z,26.42
2018-06-04T09:46:16.982Z,26.49
2018-06-04T09:47:17.272Z,26.77
2018-06-04T09:48:17.551Z,26.77
2018-06-04T09:49:17.807Z,26.77
2018-06-04T09:50:17.082Z,31.02
2018-06-04T09:51:17.122Z,26.40
2018-06-04T09:52:17.387Z,26.40
2018-06-04T09:53:17.658Z,26.40
2018-06-04T09:54:16.932Z,25.53
2018-06-04T09:55:17.199Z,25.53
2018-06-04T09:56:17.506Z,25.53
2018-06-04T09:57:17.774Z,30.17
2018-06-04T09:58:17.044Z,25.14
2018-06-04T09:59:17.327Z,25.14
2018-06-04T10:00:17.607Z,25.23
2018-06-04T10:01:17.661Z,25.19
2018-06-04T10:02:16.929Z,25.19
2018-06-04T10:03:17.196Z,25.32
2018-06-04T10:04:17.497Z,25.32
2018-06-04T10:05:17.795Z,25.32
2018-06-04T10:06:17.089Z,25.26
2018-06-04T10:07:17.353Z,25.26
2018-06-04T10:08:17.639Z,25.26
2018-06-04T10:09:16.925Z,29.57
2018-06-04T10:10:17.222Z,29.99
2018-06-04T10:11:17.258Z,25.85
2018-06-04T10:12:17.544Z,25.85
2018-06-04T10:13:17.823Z,25.73
2018-06-04T10:14:17.099Z,25.73
2018-06-04T10:15:17.378Z,25.73
2018-06-04T10:16:17.660Z,30.32
2018-06-04T10:17:16.958Z,30.03
2018-06-04T10:18:17.222Z,26.12
2018-06-04T10:19:17.485Z,26.18
2018-06-04T10:20:17.765Z,26.18
2018-06-04T10:21:18.075Z,26.29
2018-06-04T10:22:17.366Z,26.29
2018-06-04T10:23:17.653Z,25.73
2018-06-04T10:24:16.937Z,25.64
2018-06-04T10:25:17.267Z,25.64
2018-06-04T10:26:17.528Z,25.64
2018-06-04T10:27:17.790Z,28.18
2018-06-04T10:28:17.056Z,25.49
2018-06-04T10:29:17.349Z,25.57
2018-06-04T10:30:17.643Z,25.83
2018-06-04T10:31:17.686Z,25.66
2018-06-04T10:32:17.894Z,25.66
2018-06-04T10:33:17.186Z,25.66
2018-06-04T10:34:17.483Z,29.00
2018-06-04T10:35:17.745Z,28.76
2018-06-04T10:36:17.051Z,28.86
2018-06-04T10:37:17.367Z,26.13
2018-06-04T10:38:17.677Z,26.05
2018-06-04T10:39:16.974Z,25.98
2018-06-04T10:40:17.261Z,25.98
2018-06-04T10:41:17.306Z,25.73
2018-06-04T10:42:17.608Z,25.23
2018-06-04T10:43:17.905Z,25.15
2018-06-04T10:44:17.177Z,25.15
2018-06-04T10:45:17.470Z,25.04
2018-06-04T10:46:17.763Z,25.04
2018-06-04T10:47:17.044Z,25.04
2018-06-04T10:48:17.348Z,29.15
2018-06-04T10:49:17.646Z,25.25
2018-06-04T10:50:16.917Z,25.25
2018-06-04T10:51:16.962Z,25.50
2018-06-04T10:52:17.266Z,25.69
2018-06-04T10:53:17.549Z,25.69
2018-06-04T10:54:17.828Z,25.69
2018-06-04T10:55:17.131Z,30.48
2018-06-04T10:56:17.414Z,26.38
2018-06-04T10:57:17.697Z,26.38
2018-06-04T10:58:16.991Z,26.38
2018-06-04T10:59:17.278Z,31.54
2018-06-04T11:00:17.567Z,31.03
2018-06-04T11:01:17.595Z,26.66
2018-06-04T11:02:17.895Z,26.66
2018-06-04T11:03:17.183Z,26.66
2018-06-04T11:04:17.449Z,31.45
2018-06-04T11:05:17.741Z,32.08
2018-06-04T11:06:17.008Z,30.46
2018-06-04T11:07:17.313Z,30.94
2018-06-04T11:08:17.581Z,31.10
2018-06-04T11:09:17.861Z,32.75
2018-06-04T11:10:17.171Z,33.48
2018-06-04T11:11:17.225Z,33.96
2018-06-04T11:12:17.493Z,34.35
2018-06-04T11:13:17.781Z,34.09
2018-06-04T11:14:17.079Z,34.05
2018-06-04T11:15:17.365Z,31.79
2018-06-04T11:16:17.646Z,31.14
2018-06-04T11:17:16.930Z,30.95
2018-06-04T11:18:17.220Z,29.65
2018-06-04T11:19:17.484Z,29.65
2018-06-04T11:20:17.801Z,29.48
2018-06-04T11:21:17.814Z,26.86
2018-06-04T11:22:17.091Z,26.86
2018-06-04T11:23:17.393Z,26.86
2018-06-04T11:24:17.673Z,30.14
2018-06-04T11:25:16.941Z,30.42
2018-06-04T11:26:17.223Z,30.71
2018-06-04T11:27:17.511Z,26.40
2018-06-04T11:28:17.794Z,26.40
2018-06-04T11:29:17.080Z,26.40
2018-06-04T11:30:17.352Z,31.00
2018-06-04T11:31:17.415Z,30.50
2018-06-04T11:32:17.678Z,30.30
2018-06-04T11:33:16.967Z,30.21
2018-06-04T11:34:17.245Z,26.32
2018-06-04T11:35:17.544Z,26.38
2018-06-04T11:36:17.846Z,26.38
2018-06-04T11:37:17.143Z,26.38
2018-06-04T11:38:17.449Z,26.59
2018-06-04T11:39:17.742Z,26.59
2018-06-04T11:40:17.027Z,26.59
2018-06-04T11:41:17.076Z,29.34
2018-06-04T11:42:17.378Z,28.65
2018-06-04T11:43:17.651Z,26.63
2018-06-04T11:44:16.943Z,26.63
2018-06-04T11:45:17.209Z,26.63
2018-06-04T11:46:17.464Z,26.63
2018-06-04T11:47:17.719Z,26.58
2018-06-04T11:48:17.007Z,26.58
2018-06-04T11:49:17.288Z,26.58
2018-06-04T11:50:17.592Z,28.35
2018-06-04T11:51:17.599Z,28.54
2018-06-04T11:52:17.912Z,26.29
2018-06-04T11:53:17.213Z,26.29
2018-06-04T11:54:17.516Z,26.29
2018-06-04T11:55:17.811Z,26.09
2018-06-04T11:56:17.074Z,26.09
2018-06-04T11:57:17.375Z,26.12
2018-06-04T11:58:17.656Z,26.12
2018-06-04T11:59:16.935Z,26.12
2018-06-04T12:00:17.224Z,26.25
2018-06-04T12:01:17.272Z,26.59
2018-06-04T12:02:17.565Z,26.70
2018-06-04T12:03:17.870Z,26.70
2018-06-04T12:04:17.147Z,26.91
2018-06-04T12:05:17.429Z,27.24
2018-06-04T12:06:17.716Z,27.50
2018-06-04T12:07:16.995Z,27.49
2018-06-04T12:08:17.272Z,27.25
2018-06-04T12:09:17.534Z,26.98
2018-06-04T12:10:17.843Z,26.89
2018-06-04T12:11:17.892Z,26.89
2018-06-04T12:12:17.213Z,26.79
2018-06-04T12:13:17.501Z,26.69
2018-06-04T12:14:17.778Z,26.70
2018-06-04T12:15:17.058Z,26.70
2018-06-04T12:16:17.315Z,26.70
2018-06-04T12:17:17.595Z,26.85
2018-06-04T12:18:17.883Z,26.70
2018-06-04T12:19:17.163Z,26.70
2018-06-04T12:20:17.469Z,26.67
2018-06-04T12:21:17.521Z,26.83
2018-06-04T12:22:17.802Z,26.67
2018-06-04T12:23:17.079Z,26.67
2018-06-04T12:24:17.354Z,27.08
2018-06-04T12:25:17.633Z,27.08
2018-06-04T12:26:17.911Z,27.15
2018-06-04T12:27:17.195Z,27.15
2018-06-04T12:28:17.534Z,27.49
2018-06-04T12:29:16.978Z,27.47
2018-06-04T12:30:17.274Z,27.35
2018-06-04T12:31:17.310Z,27.32
2018-06-04T12:32:17.596Z,27.42
2018-06-04T12:33:17.861Z,27.43
2018-06-04T12:34:17.161Z,27.39
2018-06-04T12:35:17.437Z,27.32
2018-06-04T12:36:17.708Z,27.33
2018-06-04T12:37:16.988Z,27.22
2018-06-04T12:38:17.274Z,27.20
2018-06-04T12:39:17.560Z,26.98
2018-06-04T12:40:17.853Z,27.08
2018-06-04T12:41:17.903Z,27.22
2018-06-04T12:42:17.164Z,27.33
2018-06-04T12:43:17.446Z,27.43
2018-06-04T12:44:17.720Z,27.40
2018-06-04T12:45:17.021Z,27.43
2018-06-04T12:46:17.291Z,27.53
2018-06-04T12:47:17.592Z,27.60
2018-06-04T12:48:17.871Z,27.71
2018-06-04T12:49:17.133Z,27.68
2018-06-04T12:50:17.441Z,27.55
2018-06-04T12:51:17.477Z,27.69
2018-06-04T12:52:17.758Z,27.69